Time;durP1;ratioP1;P1;durP2;ratioP2;P2;SDS_P1;SDS_P2;PMS_P1;PMS_P2;Temp;Humidity;BMP_temperature;BMP_pressure;BME280_temperature;BME280_humidity;BME280_pressure;Samples;Min_cycle;Max_cycle;Signal;HPM_P1;HPM_P2
2022/03/01 00:01:54;;;;;;;16.40;8.43;;;2.60;99.90;;;;;;5044095;28;20415;-77
2022/03/01 00:04:21;;;;;;;17.77;9.27;;;2.60;99.90;;;;;;5044176;28;20048;-77
2022/03/01 00:06:52;;;;;;;15.73;8.68;;;2.50;99.90;;;;;;5051946;28;20044;-77
2022/03/01 00:09:20;;;;;;;;;;;2.50;99.90;;;;;;5048674;28;20040;-77
2022/03/01 00:11:47;;;;;;;16.27;9.00;;;2.50;99.90;;;;;;5041521;28;19928;-77
2022/03/01 00:14:13;;;;;;;16.27;7.78;;;1.40;99.90;;;;;;5046824;28;20048;-77
2022/03/01 00:16:39;;;;;;;15.73;8.73;;;2.40;99.90;;;;;;5046705;28;20045;-77
2022/03/01 00:19:11;;;;;;;14.95;7.97;;;2.30;99.90;;;;;;5049531;28;20076;-76
2022/03/01 00:21:39;;;;;;;16.10;8.55;;;2.30;99.90;;;;;;5067549;28;20136;-77
2022/03/01 00:24:05;;;;;;;16.20;8.80;;;2.30;99.90;;;;;;5069079;28;20136;-77
2022/03/01 00:26:31;;;;;;;15.25;8.20;;;2.30;99.90;;;;;;5042522;28;20477;-77
2022/03/01 00:28:56;;;;;;;16.30;8.80;;;2.20;99.90;;;;;;5063938;28;21059;-77
2022/03/01 00:31:22;;;;;;;17.73;8.05;;;2.20;99.90;;;;;;5045345;28;20075;-77
2022/03/01 00:33:48;;;;;;;15.93;8.52;;;2.20;99.90;;;;;;5049797;28;20044;-77
2022/03/01 00:36:15;;;;;;;15.52;9.10;;;2.20;99.90;;;;;;5046989;28;20416;-76
2022/03/01 00:38:41;;;;;;;15.57;8.45;;;2.20;99.90;;;;;;5047443;28;20052;-77
2022/03/01 00:41:06;;;;;;;15.95;7.63;;;2.20;99.90;;;;;;5048551;28;20045;-77
2022/03/01 00:43:32;;;;;;;15.05;8.00;;;2.20;99.90;;;;;;5045847;28;20045;-77
2022/03/01 00:45:58;;;;;;;16.08;8.10;;;2.30;99.90;;;;;;5037799;28;20037;-78
2022/03/01 00:48:24;;;;;;;16.15;7.65;;;2.40;99.90;;;;;;5048395;28;20098;-77
2022/03/01 00:50:50;;;;;;;15.57;8.95;;;2.30;99.90;;;;;;5042307;28;20048;-77
2022/03/01 00:53:16;;;;;;;19.45;8.32;;;2.40;99.90;;;;;;5044213;28;20039;-77
2022/03/01 00:55:42;;;;;;;13.73;8.10;;;2.40;99.90;;;;;;5061801;28;20044;-77
2022/03/01 00:58:08;;;;;;;16.58;7.60;;;2.40;99.90;;;;;;5066037;28;20123;-77
2022/03/01 01:00:34;;;;;;;17.70;7.55;;;2.40;99.90;;;;;;5043542;28;20052;-77
2022/03/01 01:03:01;;;;;;;15.07;8.43;;;2.40;99.90;;;;;;5066630;28;20044;-76
2022/03/01 01:05:27;;;;;;;14.27;8.00;;;2.50;99.90;;;;;;5047018;28;20048;-77
2022/03/01 01:07:53;;;;;;;18.45;8.25;;;2.40;99.90;;;;;;5061266;28;20036;-77
2022/03/01 01:10:20;;;;;;;14.82;7.70;;;2.40;99.90;;;;;;5044146;28;20492;-77
2022/03/01 01:12:46;;;;;;;14.20;8.18;;;2.40;99.90;;;;;;5041997;28;20780;-76
2022/03/01 01:15:14;;;;;;;14.95;8.18;;;2.50;99.90;;;;;;5047038;28;20045;-77
2022/03/01 01:17:40;;;;;;;15.57;8.15;;;2.50;99.90;;;;;;5041426;28;20056;-77
2022/03/01 01:20:07;;;;;;;17.77;9.02;;;2.50;99.90;;;;;;5076698;28;20047;-77
2022/03/01 01:22:39;;;;;;;13.55;7.93;;;2.50;99.90;;;;;;5043768;28;20102;-77
2022/03/01 01:25:06;;;;;;;18.67;9.32;;;2.40;99.90;;;;;;5043643;28;20385;-77
2022/03/01 01:27:32;;;;;;;15.25;8.60;;;2.40;99.90;;;;;;5040033;28;20131;-76
2022/03/01 01:29:57;;;;;;;13.60;7.45;;;2.40;99.90;;;;;;5071966;28;20127;-77
2022/03/01 01:32:23;;;;;;;15.73;8.13;;;2.40;99.90;;;;;;5042021;28;20040;-77
2022/03/01 01:34:49;;;;;;;15.10;8.55;;;2.30;99.90;;;;;;5043869;28;20116;-77
2022/03/01 01:37:15;;;;;;;16.70;8.98;;;2.30;99.90;;;;;;5038584;28;20484;-77
2022/03/01 01:39:41;;;;;;;19.33;9.02;;;2.30;99.90;;;;;;5072527;28;20044;-77
2022/03/01 01:42:07;;;;;;;15.63;8.95;;;2.30;99.90;;;;;;5037629;28;20091;-76
2022/03/01 01:44:33;;;;;;;18.48;9.18;;;2.30;99.90;;;;;;5032572;28;20048;-76
2022/03/01 01:46:59;;;;;;;14.40;7.82;;;2.20;99.90;;;;;;5044912;28;20110;-77
2022/03/01 01:49:25;;;;;;;17.77;9.75;;;0.50;99.90;;;;;;5043333;28;20052;-76
2022/03/01 01:51:54;;;;;;;16.40;8.27;;;2.20;99.90;;;;;;5041625;28;20056;-76
2022/03/01 01:54:21;;;;;;;15.32;8.43;;;2.20;99.90;;;;;;5044942;28;20048;-76
2022/03/01 01:56:47;;;;;;;14.70;8.40;;;2.30;99.90;;;;;;5042578;28;20095;-76
2022/03/01 01:59:12;;;;;;;13.60;7.97;;;2.30;99.90;;;;;;5043737;28;20041;-76
2022/03/01 02:01:38;;;;;;;15.60;8.13;;;2.20;99.90;;;;;;5044130;28;20049;-76
2022/03/01 02:04:04;;;;;;;17.73;9.32;;;2.30;99.90;;;;;;5046639;28;20043;-76
2022/03/01 02:06:30;;;;;;;16.05;8.57;;;2.20;99.90;;;;;;5065497;28;20480;-76
2022/03/01 02:08:55;;;;;;;16.40;8.88;;;2.20;99.90;;;;;;5063590;28;20044;-76
2022/03/01 02:11:21;;;;;;;16.50;8.55;;;2.20;99.90;;;;;;5044237;28;20128;-76
2022/03/01 02:13:46;;;;;;;15.10;8.35;;;2.10;99.90;;;;;;5047796;28;20119;-76
2022/03/01 02:16:13;;;;;;;14.88;8.85;;;2.10;99.90;;;;;;5066783;28;20060;-76
2022/03/01 02:18:38;;;;;;;16.52;8.63;;;2.10;99.90;;;;;;5046014;28;20043;-76
2022/03/01 02:21:05;;;;;;;18.02;8.82;;;2.10;99.90;;;;;;5045706;28;20099;-76
2022/03/01 02:23:30;;;;;;;16.35;8.80;;;2.10;99.90;;;;;;5044367;28;20487;-76
2022/03/01 02:25:56;;;;;;;14.65;8.00;;;2.00;99.90;;;;;;5046334;28;20068;-76
2022/03/01 02:28:21;;;;;;;20.70;8.77;;;2.10;99.90;;;;;;5046196;28;20029;-76
2022/03/01 02:30:47;;;;;;;18.15;8.73;;;2.00;99.90;;;;;;5048832;28;20048;-76
2022/03/01 02:33:13;;;;;;;17.08;9.50;;;2.00;99.90;;;;;;5044243;28;20049;-76
2022/03/01 02:35:38;;;;;;;16.33;8.57;;;2.00;99.90;;;;;;5042775;28;20052;-76
2022/03/01 02:38:04;;;;;;;17.80;9.13;;;2.00;99.90;;;;;;5044800;28;20064;-76
2022/03/01 02:40:30;;;;;;;14.10;8.02;;;2.00;99.90;;;;;;5044980;28;20371;-78
2022/03/01 02:42:56;;;;;;;15.75;8.48;;;2.00;99.90;;;;;;5044710;28;20037;-76
2022/03/01 02:45:22;;;;;;;15.93;9.20;;;2.00;99.90;;;;;;5043124;28;20492;-76
2022/03/01 02:47:48;;;;;;;16.77;8.63;;;2.00;99.90;;;;;;5041189;28;20057;-76
2022/03/01 02:50:15;;;;;;;16.35;8.68;;;2.10;99.90;;;;;;5041763;28;20839;-76
2022/03/01 02:52:42;;;;;;;17.60;9.10;;;2.00;99.90;;;;;;5047015;28;20056;-76
2022/03/01 02:55:09;;;;;;;18.02;9.77;;;1.90;99.90;;;;;;5063783;28;20091;-76
2022/03/01 02:57:35;;;;;;;19.13;9.75;;;2.00;99.90;;;;;;5046124;28;20411;-76
2022/03/01 03:00:03;;;;;;;17.63;9.35;;;2.00;99.90;;;;;;5044693;28;20041;-76
2022/03/01 03:02:29;;;;;;;18.75;9.20;;;1.90;99.90;;;;;;5045712;28;20072;-76
2022/03/01 03:04:55;;;;;;;17.15;9.52;;;2.10;99.90;;;;;;5046958;28;20085;-76
2022/03/01 03:07:20;;;;;;;16.63;8.75;;;1.90;99.90;;;;;;5044576;28;20036;-76
2022/03/01 03:09:47;;;;;;;17.98;8.85;;;1.90;99.90;;;;;;5041876;28;20107;-75
2022/03/01 03:12:13;;;;;;;18.02;9.15;;;1.90;99.90;;;;;;5072012;28;20069;-76
2022/03/01 03:14:39;;;;;;;15.82;9.10;;;1.80;99.90;;;;;;5069254;28;20068;-76
2022/03/01 03:17:06;;;;;;;18.15;9.48;;;1.80;99.90;;;;;;5059726;28;20143;-76
2022/03/01 03:19:32;;;;;;;18.40;9.57;;;1.80;99.90;;;;;;5043072;28;20041;-76
2022/03/01 03:21:59;;;;;;;18.17;9.32;;;1.80;99.90;;;;;;5039329;28;20044;-76
2022/03/01 03:24:25;;;;;;;16.48;9.13;;;1.70;99.90;;;;;;5072169;28;20040;-76
2022/03/01 03:26:51;;;;;;;17.23;9.30;;;1.70;99.90;;;;;;5044592;28;20109;-76
2022/03/01 03:29:18;;;;;;;18.77;9.30;;;1.70;99.90;;;;;;5043524;28;20388;-76
2022/03/01 03:31:46;;;;;;;16.48;9.43;;;1.70;99.90;;;;;;5042095;28;20036;-76
2022/03/01 03:34:12;;;;;;;17.20;10.05;;;1.70;99.90;;;;;;5043582;28;20080;-77
2022/03/01 03:36:39;;;;;;;19.55;9.90;;;1.70;99.90;;;;;;5044943;28;20068;-76
2022/03/01 03:39:08;;;;;;;22.17;10.90;;;1.70;99.90;;;;;;5043729;28;20140;-76
2022/03/01 03:41:36;;;;;;;22.88;10.98;;;1.70;99.90;;;;;;5036285;28;20052;-76
2022/03/01 03:44:01;;;;;;;19.60;10.40;;;1.70;99.90;;;;;;5040611;28;20059;-77
2022/03/01 03:46:28;;;;;;;21.65;10.65;;;1.70;99.90;;;;;;5046463;28;20496;-77
2022/03/01 03:48:54;;;;;;;18.70;10.68;;;1.80;99.90;;;;;;5041335;28;20412;-77
2022/03/01 03:51:20;;;;;;;19.63;9.95;;;1.80;99.90;;;;;;5055244;28;20046;-77
2022/03/01 03:53:47;;;;;;;19.77;9.95;;;1.80;99.90;;;;;;5040727;28;20065;-77
2022/03/01 03:56:13;;;;;;;21.88;10.55;;;1.90;99.90;;;;;;5044012;28;20127;-77
2022/03/01 03:58:42;;;;;;;18.08;9.85;;;1.90;99.90;;;;;;5040604;28;20059;-77
2022/03/01 04:01:10;;;;;;;20.02;10.50;;;1.90;99.90;;;;;;5045090;28;20032;-77
2022/03/01 04:03:35;;;;;;;19.02;9.23;;;1.90;99.90;;;;;;5039642;28;20041;-77
2022/03/01 04:06:01;;;;;;;19.52;10.18;;;1.90;99.90;;;;;;5040587;28;20381;-77
2022/03/01 04:08:27;;;;;;;17.60;9.65;;;2.00;99.90;;;;;;5041418;28;20119;-77
2022/03/01 04:10:56;;;;;;;16.40;9.40;;;2.00;99.90;;;;;;5042358;28;20052;-77
2022/03/01 04:13:24;;;;;;;21.05;10.80;;;2.00;99.90;;;;;;5046725;28;20082;-77
2022/03/01 04:15:52;;;;;;;18.92;10.45;;;2.00;99.90;;;;;;5056140;28;20049;-77
2022/03/01 04:18:18;;;;;;;18.38;9.90;;;2.00;99.90;;;;;;5045213;28;20045;-77
2022/03/01 04:20:44;;;;;;;18.10;10.15;;;2.10;99.90;;;;;;5039367;28;20049;-77
2022/03/01 04:23:10;;;;;;;20.15;10.68;;;2.50;99.90;;;;;;5046369;28;20082;-77
2022/03/01 04:25:36;;;;;;;17.70;9.75;;;2.10;99.90;;;;;;5061339;28;20123;-77
2022/03/01 04:28:02;;;;;;;16.50;9.63;;;2.10;99.90;;;;;;5059284;28;20513;-77
2022/03/01 04:30:28;;;;;;;21.55;10.20;;;2.10;99.90;;;;;;5064292;28;20044;-76
2022/03/01 04:32:54;;;;;;;17.63;9.40;;;2.10;99.90;;;;;;5060857;28;20056;-77
2022/03/01 04:35:21;;;;;;;17.98;9.65;;;2.10;99.90;;;;;;5048276;28;20040;-77
2022/03/01 04:37:47;;;;;;;15.70;8.90;;;2.10;99.90;;;;;;5046310;28;20443;-77
2022/03/01 04:40:15;;;;;;;23.23;10.68;;;2.10;99.90;;;;;;5046712;28;20033;-77
2022/03/01 04:42:40;;;;;;;17.48;9.75;;;2.10;99.90;;;;;;5046209;28;20051;-77
2022/03/01 04:45:09;;;;;;;22.63;10.65;;;2.10;99.90;;;;;;5043002;28;20045;-77
2022/03/01 04:47:36;;;;;;;20.05;10.05;;;2.20;99.90;;;;;;5046862;28;20404;-77
2022/03/01 04:50:02;;;;;;;17.20;9.25;;;2.20;99.90;;;;;;5042350;28;20750;-77
2022/03/01 04:52:28;;;;;;;19.92;10.60;;;2.20;99.90;;;;;;5046808;28;20048;-77
2022/03/01 04:54:53;;;;;;;18.20;9.85;;;2.20;99.90;;;;;;5040796;28;20654;-77
2022/03/01 04:57:19;;;;;;;22.13;10.43;;;2.20;99.90;;;;;;5042270;28;20037;-77
2022/03/01 04:59:44;;;;;;;17.38;9.30;;;2.10;99.90;;;;;;5044357;28;20082;-77
2022/03/01 05:02:10;;;;;;;16.35;10.30;;;2.20;99.90;;;;;;5064067;28;20067;-77
2022/03/01 05:04:36;;;;;;;19.55;10.48;;;2.20;99.90;;;;;;5061112;28;20123;-76
2022/03/01 05:07:01;;;;;;;18.73;10.85;;;2.20;99.90;;;;;;5046272;28;20048;-77
2022/03/01 05:09:27;;;;;;;19.98;9.90;;;2.20;99.90;;;;;;5040970;28;20053;-76
2022/03/01 05:11:53;;;;;;;19.63;9.35;;;2.20;99.90;;;;;;5044544;28;20041;-77
2022/03/01 05:14:19;;;;;;;18.05;9.85;;;2.30;99.90;;;;;;5043477;28;20488;-77
2022/03/01 05:16:46;;;;;;;19.73;10.32;;;2.30;99.90;;;;;;5073925;28;20041;-77
2022/03/01 05:19:13;;;;;;;20.58;11.05;;;2.40;99.90;;;;;;5040694;28;20049;-77
2022/03/01 05:21:39;;;;;;;22.88;9.80;;;2.40;99.90;;;;;;5057582;28;20381;-77
2022/03/01 05:24:05;;;;;;;18.83;10.02;;;2.40;99.90;;;;;;5057941;28;20040;-77
2022/03/01 05:26:31;;;;;;;19.10;10.27;;;2.30;99.90;;;;;;5045952;28;20051;-77
2022/03/01 05:28:57;;;;;;;19.33;10.13;;;2.30;99.90;;;;;;5044712;28;20048;-77
2022/03/01 05:31:23;;;;;;;19.35;10.45;;;2.30;99.90;;;;;;5038942;28;20157;-77
2022/03/01 05:33:49;;;;;;;19.27;10.48;;;2.40;99.90;;;;;;5042801;28;20564;-77
2022/03/01 05:36:15;;;;;;;18.38;9.93;;;2.40;99.90;;;;;;5045419;28;20044;-77
2022/03/01 05:38:42;;;;;;;18.80;9.90;;;2.40;99.90;;;;;;5073281;28;20041;-77
2022/03/01 05:41:08;;;;;;;17.15;10.27;;;2.40;99.90;;;;;;5038690;28;20102;-77
2022/03/01 05:43:34;;;;;;;18.40;10.38;;;2.40;99.90;;;;;;5059840;28;20490;-76
2022/03/01 05:46:00;;;;;;;16.40;9.40;;;2.50;99.90;;;;;;5043132;28;20131;-77
2022/03/01 05:48:26;;;;;;;18.58;10.00;;;2.40;99.90;;;;;;5050556;28;20119;-77
2022/03/01 05:50:52;;;;;;;17.88;10.27;;;2.50;99.90;;;;;;5056488;28;20199;-76
2022/03/01 05:53:18;;;;;;;19.38;10.68;;;2.50;99.90;;;;;;5063467;28;20049;-77
2022/03/01 05:55:44;;;;;;;20.92;11.02;;;2.50;99.90;;;;;;5066562;28;20056;-77
2022/03/01 05:58:10;;;;;;;21.33;9.80;;;2.50;99.90;;;;;;5050959;28;20057;-76
2022/03/01 06:00:35;;;;;;;22.98;10.68;;;2.50;99.90;;;;;;5050092;28;20051;-76
2022/03/01 06:03:01;;;;;;;18.35;9.98;;;2.50;99.90;;;;;;5051950;28;20503;-76
2022/03/01 06:05:28;;;;;;;18.35;10.40;;;2.40;99.90;;;;;;5047523;28;20174;-76
2022/03/01 06:07:55;;;;;;;20.15;10.15;;;2.40;99.90;;;;;;5070355;28;20471;-76
2022/03/01 06:10:23;;;;;;;18.38;10.65;;;2.40;99.90;;;;;;5052842;28;20036;-76
2022/03/01 06:12:48;;;;;;;18.88;10.93;;;2.40;99.90;;;;;;5061535;28;20079;-76
2022/03/01 06:15:14;;;;;;;18.23;10.15;;;2.30;99.90;;;;;;5052434;28;20075;-76
2022/03/01 06:17:40;;;;;;;18.50;10.07;;;2.30;99.90;;;;;;5043083;28;20055;-76
2022/03/01 06:20:08;;;;;;;20.08;11.05;;;2.30;99.90;;;;;;5050868;28;20040;-77
2022/03/01 06:22:34;;;;;;;17.70;10.48;;;2.30;99.90;;;;;;5048090;28;20510;-76
2022/03/01 06:25:00;;;;;;;18.50;9.32;;;2.30;99.90;;;;;;5047503;28;20142;-77
2022/03/01 06:27:26;;;;;;;22.38;11.23;;;2.30;99.90;;;;;;5047370;28;20041;-77
2022/03/01 06:29:51;;;;;;;18.33;10.25;;;2.30;99.90;;;;;;5061396;28;20385;-77
2022/03/01 06:32:17;;;;;;;17.52;9.52;;;2.30;99.90;;;;;;5068638;28;20059;-78
2022/03/01 06:34:43;;;;;;;19.20;10.75;;;2.40;99.90;;;;;;5047203;28;20049;-77
2022/03/01 06:37:13;;;;;;;22.13;11.05;;;2.40;99.90;;;;;;5045681;28;20396;-77
2022/03/01 06:39:43;;;;;;;18.42;10.18;;;2.40;99.90;;;;;;5059808;28;20035;-77
2022/03/01 06:42:10;;;;;;;19.00;9.82;;;2.40;99.90;;;;;;5079260;28;20144;-77
2022/03/01 06:44:36;;;;;;;20.25;10.48;;;2.40;99.90;;;;;;5061118;28;20033;-76
2022/03/01 06:47:02;;;;;;;20.90;9.98;;;2.40;99.90;;;;;;5033060;28;20408;-76
2022/03/01 06:49:27;;;;;;;20.00;9.73;;;2.40;99.90;;;;;;5035553;28;20124;-77
2022/03/01 06:51:53;;;;;;;19.67;10.27;;;2.50;99.90;;;;;;5046041;28;20089;-77
2022/03/01 06:54:19;;;;;;;19.30;10.63;;;2.40;99.90;;;;;;5065971;28;20053;-78
2022/03/01 06:56:46;;;;;;;20.25;10.50;;;2.40;99.90;;;;;;5074561;28;20079;-77
2022/03/01 06:59:13;;;;;;;20.88;10.15;;;2.40;99.90;;;;;;5038767;28;20068;-77
2022/03/01 07:01:39;;;;;;;18.42;9.70;;;2.40;99.90;;;;;;5069891;28;20472;-77
2022/03/01 07:04:04;;;;;;;22.58;10.85;;;2.40;99.90;;;;;;5043488;28;20116;-77
2022/03/01 07:06:30;;;;;;;20.08;10.63;;;2.40;99.90;;;;;;5038005;28;20493;-78
2022/03/01 07:08:55;;;;;;;22.98;10.45;;;2.50;99.90;;;;;;5038567;28;20044;-77
2022/03/01 07:11:22;;;;;;;21.55;11.70;;;2.50;99.90;;;;;;5040955;28;20052;-76
2022/03/01 07:13:48;;;;;;;20.60;10.77;;;2.50;99.90;;;;;;5037759;28;20489;-77
2022/03/01 07:16:13;;;;;;;17.85;10.10;;;2.60;99.90;;;;;;5042354;28;20393;-75
2022/03/01 07:18:40;;;;;;;20.70;10.93;;;2.60;99.90;;;;;;5041262;28;20040;-75
2022/03/01 07:21:06;;;;;;;18.35;11.07;;;2.70;99.90;;;;;;5044279;28;20124;-75
2022/03/01 07:23:31;;;;;;;19.63;11.35;;;2.70;99.90;;;;;;5032949;28;20817;-78
2022/03/01 07:25:57;;;;;;;21.00;10.32;;;2.80;99.90;;;;;;5043830;28;20098;-75
2022/03/01 07:28:22;;;;;;;19.70;11.70;;;3.00;99.90;;;;;;5038729;28;20037;-76
2022/03/01 07:30:48;;;;;;;20.17;11.70;;;3.00;99.90;;;;;;5075835;28;20052;-76
2022/03/01 07:33:14;;;;;;;21.15;11.80;;;3.00;99.90;;;;;;5041503;28;20484;-76
2022/03/01 07:35:39;;;;;;;22.55;11.23;;;3.20;99.90;;;;;;5046646;28;20053;-76
2022/03/01 07:38:05;;;;;;;20.05;10.82;;;3.10;99.90;;;;;;5046410;28;20040;-76
2022/03/01 07:40:30;;;;;;;19.90;11.35;;;3.20;99.90;;;;;;5046190;28;20052;-76
2022/03/01 07:42:56;;;;;;;25.90;11.95;;;3.30;99.90;;;;;;5048317;28;20041;-76
2022/03/01 07:45:22;;;;;;;21.80;10.75;;;3.30;99.90;;;;;;5069158;28;20452;-76
2022/03/01 07:47:47;;;;;;;22.77;11.70;;;3.40;99.90;;;;;;5057740;28;20049;-76
2022/03/01 07:50:13;;;;;;;22.23;11.77;;;3.40;99.90;;;;;;5064317;28;20056;-76
2022/03/01 07:52:39;;;;;;;19.25;11.02;;;3.50;99.90;;;;;;5049206;28;20052;-76
2022/03/01 07:55:05;;;;;;;22.70;12.07;;;3.50;99.90;;;;;;5066588;28;20053;-76
2022/03/01 07:57:31;;;;;;;20.85;10.93;;;3.60;99.90;;;;;;5060530;28;20072;-77
2022/03/01 07:59:57;;;;;;;20.60;10.98;;;3.60;99.90;;;;;;5066939;28;20072;-76
2022/03/01 08:02:22;;;;;;;17.92;11.10;;;3.70;99.90;;;;;;5050756;28;20079;-76
2022/03/01 08:04:48;;;;;;;22.48;12.05;;;3.70;99.90;;;;;;5080590;28;20044;-76
2022/03/01 08:07:13;;;;;;;23.30;12.18;;;3.70;99.90;;;;;;5064130;28;20525;-76
2022/03/01 08:09:40;;;;;;;20.60;11.25;;;3.80;99.90;;;;;;5068913;28;20044;-76
2022/03/01 08:12:07;;;;;;;22.80;11.45;;;3.80;99.90;;;;;;5071680;28;20118;-76
2022/03/01 08:14:34;;;;;;;20.00;10.57;;;3.80;99.90;;;;;;5055174;28;20045;-76
2022/03/01 08:17:00;;;;;;;23.05;11.25;;;3.80;99.90;;;;;;5047704;28;20040;-76
2022/03/01 08:19:26;;;;;;;20.88;11.98;;;3.90;99.90;;;;;;5067498;28;20036;-76
2022/03/01 08:21:52;;;;;;;21.83;11.45;;;3.90;99.90;;;;;;5071763;28;20094;-76
2022/03/01 08:24:17;;;;;;;20.77;11.80;;;3.90;99.90;;;;;;5054385;28;20068;-76
2022/03/01 08:26:44;;;;;;;21.63;12.00;;;4.00;99.90;;;;;;5071231;28;20131;-76
2022/03/01 08:29:09;;;;;;;19.13;11.32;;;4.00;99.90;;;;;;5069058;28;20036;-76
2022/03/01 08:31:39;;;;;;;23.13;11.95;;;4.00;99.90;;;;;;5071299;28;20044;-77
2022/03/01 08:34:05;;;;;;;20.17;11.80;;;4.10;99.90;;;;;;5070894;28;20060;-76
2022/03/01 08:36:30;;;;;;;18.67;11.40;;;4.10;99.90;;;;;;5072526;28;20040;-76
2022/03/01 08:38:56;;;;;;;20.50;10.77;;;4.10;99.90;;;;;;5069570;28;20036;-77
2022/03/01 08:41:21;;;;;;;23.58;12.35;;;4.20;99.90;;;;;;5070452;28;20128;-76
2022/03/01 08:43:47;;;;;;;19.70;11.32;;;4.20;99.90;;;;;;5065843;28;20052;-76
2022/03/01 08:46:13;;;;;;;19.42;11.77;;;4.30;99.90;;;;;;5049928;28;20048;-76
2022/03/01 08:48:40;;;;;;;19.55;11.55;;;4.30;99.90;;;;;;5066951;28;20888;-76
2022/03/01 08:51:06;;;;;;;20.02;11.57;;;4.40;99.90;;;;;;5058580;28;20488;-77
2022/03/01 08:53:32;;;;;;;21.90;12.40;;;4.40;99.90;;;;;;5050008;28;20052;-77
2022/03/01 08:55:58;;;;;;;18.50;10.75;;;4.50;99.90;;;;;;5048394;28;20036;-77
2022/03/01 08:58:24;;;;;;;18.02;11.35;;;4.60;99.90;;;;;;5070897;28;20040;-77
2022/03/01 09:00:51;;;;;;;21.02;11.00;;;4.60;99.90;;;;;;5049336;28;20053;-77
2022/03/01 09:03:17;;;;;;;20.80;11.30;;;4.70;99.90;;;;;;5071057;28;20045;-77
2022/03/01 09:05:43;;;;;;;18.80;11.30;;;4.80;99.90;;;;;;5068504;28;20040;-77
2022/03/01 09:08:12;;;;;;;18.00;10.45;;;4.80;99.90;;;;;;5069306;28;20123;-77
2022/03/01 09:10:39;;;;;;;19.05;11.35;;;4.80;99.90;;;;;;5071914;28;20036;-77
2022/03/01 09:13:04;;;;;;;19.48;10.88;;;4.90;99.90;;;;;;5069923;28;20044;-77
2022/03/01 09:15:32;;;;;;;20.23;11.25;;;4.90;99.90;;;;;;5070171;28;20039;-77
2022/03/01 09:18:01;;;;;;;20.70;11.43;;;5.00;99.90;;;;;;5050696;28;20412;-76
2022/03/01 09:20:27;;;;;;;20.70;11.50;;;5.10;99.90;;;;;;5067780;28;20036;-77
2022/03/01 09:22:54;;;;;;;20.58;11.38;;;5.20;99.90;;;;;;5067051;28;20513;-77
2022/03/01 09:25:19;;;;;;;19.15;10.98;;;5.40;99.90;;;;;;5051566;28;20052;-77
2022/03/01 09:27:45;;;;;;;22.30;11.10;;;5.50;99.90;;;;;;5065478;28;20045;-77
2022/03/01 09:30:12;;;;;;;15.93;10.30;;;5.60;99.90;;;;;;5064711;28;20041;-77
2022/03/01 09:32:37;;;;;;;20.05;10.65;;;5.70;99.90;;;;;;5063020;28;20040;-77
2022/03/01 09:35:03;;;;;;;20.42;11.07;;;5.80;99.90;;;;;;5071844;28;20051;-77
2022/03/01 09:37:31;;;;;;;19.02;10.07;;;5.90;99.90;;;;;;5067086;28;20488;-77
2022/03/01 09:39:58;;;;;;;15.80;10.48;;;6.00;99.90;;;;;;5066747;28;20040;-77
2022/03/01 09:42:26;;;;;;;17.67;10.73;;;6.00;99.90;;;;;;5068082;28;20090;-77
2022/03/01 09:44:53;;;;;;;20.27;10.70;;;6.00;99.90;;;;;;5071520;28;20040;-77
2022/03/01 09:47:19;;;;;;;20.50;11.48;;;6.10;99.90;;;;;;5070127;28;20060;-77
2022/03/01 09:49:44;;;;;;;18.23;10.27;;;6.10;99.90;;;;;;5065483;28;20554;-77
2022/03/01 09:52:10;;;;;;;17.98;10.93;;;6.20;99.90;;;;;;5048619;28;20061;-77
2022/03/01 09:54:36;;;;;;;17.13;11.25;;;6.30;99.90;;;;;;5050328;28;20048;-77
2022/03/01 09:57:02;;;;;;;19.65;10.85;;;6.30;99.90;;;;;;5071524;28;20392;-77
2022/03/01 09:59:27;;;;;;;17.13;11.27;;;6.30;99.90;;;;;;5067601;28;20082;-77
2022/03/01 10:01:53;;;;;;;19.38;11.20;;;6.30;99.90;;;;;;5048218;28;20052;-77
2022/03/01 10:04:20;;;;;;;22.30;11.88;;;6.30;99.90;;;;;;5043450;28;20380;-77
2022/03/01 10:06:48;;;;;;;18.67;11.23;;;6.30;99.90;;;;;;5069043;28;20131;-77
2022/03/01 10:09:21;;;;;;;18.38;10.30;;;6.30;99.90;;;;;;5067902;28;20032;-77
2022/03/01 10:11:48;;;;;;;21.40;11.63;;;6.30;99.90;;;;;;5071404;28;20045;-77
2022/03/01 10:14:14;;;;;;;19.40;11.50;;;6.30;99.90;;;;;;5066451;28;20029;-77
2022/03/01 10:16:43;;;;;;;18.13;11.07;;;6.30;99.90;;;;;;5068635;28;20056;-77
2022/03/01 10:19:14;;;;;;;17.67;11.10;;;6.40;99.90;;;;;;5050710;28;20530;-77
2022/03/01 10:21:40;;;;;;;18.83;10.98;;;6.40;99.90;;;;;;5069678;28;20052;-77
2022/03/01 10:24:07;;;;;;;19.65;11.40;;;6.40;99.90;;;;;;5047823;28;20039;-77
2022/03/01 10:26:37;;;;;;;18.75;11.43;;;6.70;99.90;;;;;;5066740;28;20044;-77
2022/03/01 10:29:04;;;;;;;21.85;11.13;;;6.40;99.90;;;;;;5070347;28;20089;-77
2022/03/01 10:31:31;;;;;;;20.63;11.13;;;6.50;99.90;;;;;;5068557;28;20044;-77
2022/03/01 10:34:07;;;;;;;20.60;11.27;;;6.50;99.90;;;;;;5071185;28;20069;-77
2022/03/01 10:36:34;;;;;;;20.23;11.40;;;6.60;99.90;;;;;;5062532;28;20048;-77
2022/03/01 10:39:06;;;;;;;19.20;10.95;;;6.70;99.90;;;;;;5064527;28;20048;-77
2022/03/01 10:41:35;;;;;;;19.55;12.15;;;6.90;99.90;;;;;;5045258;28;20049;-77
2022/03/01 10:44:03;;;;;;;19.67;10.95;;;7.10;99.90;;;;;;5046398;28;20052;-77
2022/03/01 10:46:29;;;;;;;19.85;11.60;;;7.40;99.90;;;;;;5066125;28;20052;-77
2022/03/01 10:49:05;;;;;;;19.00;10.85;;;7.60;99.90;;;;;;5070153;28;20486;-77
2022/03/01 10:51:32;;;;;;;17.05;10.68;;;7.90;99.90;;;;;;5045454;28;20151;-77
2022/03/01 10:54:00;;;;;;;16.95;10.63;;;8.10;99.90;;;;;;5063285;28;20123;-77
2022/03/01 10:56:35;;;;;;;17.08;10.32;;;8.20;99.90;;;;;;5065178;28;20041;-77
2022/03/01 10:59:03;;;;;;;18.40;11.90;;;8.20;99.90;;;;;;5060027;28;20044;-77
2022/03/01 11:01:29;;;;;;;18.80;11.45;;;8.30;99.90;;;;;;5070361;28;20119;-77
2022/03/01 11:03:54;;;;;;;18.63;11.80;;;8.30;99.90;;;;;;5066202;28;20135;-78
2022/03/01 11:06:20;;;;;;;20.17;11.88;;;8.40;99.90;;;;;;5049657;28;20043;-77
2022/03/01 11:08:46;;;;;;;19.58;11.73;;;8.50;99.90;;;;;;5069960;28;20060;-77
2022/03/01 11:11:12;;;;;;;18.98;11.25;;;8.60;99.90;;;;;;5069346;28;20519;-77
2022/03/01 11:13:40;;;;;;;19.45;12.55;;;8.60;99.90;;;;;;5068037;28;20036;-78
2022/03/01 11:16:33;;;;;;;20.75;11.65;;;8.70;99.90;;;;;;5047229;28;20093;-78
2022/03/01 11:19:25;;;;;;;21.02;12.05;;;8.80;99.90;;;;;;5066493;28;20117;-77
2022/03/01 11:21:52;;;;;;;18.30;12.45;;;8.90;99.90;;;;;;5068210;28;20503;-78
2022/03/01 11:24:21;;;;;;;19.98;12.15;;;8.90;99.90;;;;;;5064757;28;20074;-77
2022/03/01 11:26:47;;;;;;;18.92;11.82;;;8.90;99.90;;;;;;5073785;28;20044;-77
2022/03/01 11:29:15;;;;;;;19.63;12.02;;;8.90;99.90;;;;;;5063054;28;20488;-78
2022/03/01 11:31:42;;;;;;;19.67;11.75;;;8.90;99.90;;;;;;5066072;28;20044;-77
2022/03/01 11:34:13;;;;;;;21.30;12.50;;;8.90;99.90;;;;;;5063141;28;20040;-78
2022/03/01 11:36:47;;;;;;;16.95;11.43;;;9.00;99.90;;;;;;5064506;28;20079;-77
2022/03/01 11:39:16;;;;;;;19.30;11.45;;;9.00;99.90;;;;;;5042600;28;20098;-78
2022/03/01 11:41:50;;;;;;;20.38;11.88;;;9.10;99.90;;;;;;5046694;28;20474;-77
2022/03/01 11:44:21;;;;;;;21.60;12.00;;;9.10;99.90;;;;;;5069222;28;20041;-77
2022/03/01 11:46:49;;;;;;;20.60;11.50;;;9.10;99.90;;;;;;5078686;28;20492;-77
2022/03/01 11:49:17;;;;;;;20.58;11.80;;;9.10;99.90;;;;;;5060535;28;20086;-78
2022/03/01 11:51:48;;;;;;;19.10;11.75;;;9.10;99.90;;;;;;5060370;28;20118;-78
2022/03/01 11:54:20;;;;;;;21.50;11.20;;;9.10;99.90;;;;;;5050817;28;20055;-71
2022/03/01 11:56:49;;;;;;;20.10;12.63;;;9.00;99.90;;;;;;5069794;28;20044;-78
2022/03/01 11:59:16;;;;;;;17.58;11.93;;;9.00;99.90;;;;;;5065448;28;20036;-77
2022/03/01 12:01:42;;;;;;;20.40;11.90;;;9.00;99.90;;;;;;5067841;28;20041;-77
2022/03/01 12:04:08;;;;;;;20.40;12.68;;;9.00;99.90;;;;;;5048791;28;20049;-77
2022/03/01 12:06:37;;;;;;;18.42;11.60;;;9.00;99.90;;;;;;5068997;28;20033;-77
2022/03/01 12:09:08;;;;;;;20.08;12.73;;;9.00;99.90;;;;;;5075641;28;20048;-78
2022/03/01 12:11:38;;;;;;;21.40;11.65;;;9.10;99.90;;;;;;5046179;28;20132;-77
2022/03/01 12:14:09;;;;;;;20.70;11.90;;;9.00;99.90;;;;;;5040842;28;20068;-77
2022/03/01 12:16:35;;;;;;;19.60;11.93;;;9.00;99.90;;;;;;5045817;28;20040;-78
2022/03/01 12:19:15;;;;;;;21.58;11.50;;;9.00;99.90;;;;;;5067820;28;20114;-80
2022/03/01 12:21:48;;;;;;;20.38;12.00;;;9.00;99.90;;;;;;5068672;28;20053;-78
2022/03/01 12:24:14;;;;;;;19.50;11.80;;;9.00;99.90;;;;;;5062988;28;20036;-78
2022/03/01 12:26:52;;;;;;;19.90;11.82;;;8.90;99.90;;;;;;5068019;28;20580;-77
2022/03/01 12:29:20;;;;;;;19.67;11.18;;;8.90;99.90;;;;;;5065472;28;20033;-77
2022/03/01 12:32:00;;;;;;;19.67;12.13;;;8.90;99.90;;;;;;5048872;28;20056;-80
2022/03/01 12:34:28;;;;;;;23.73;12.23;;;8.90;99.90;;;;;;5069142;28;20052;-78
2022/03/01 12:36:56;;;;;;;18.08;11.95;;;8.90;99.90;;;;;;5067891;28;20089;-79
2022/03/01 12:39:22;;;;;;;20.55;12.02;;;8.90;99.90;;;;;;5066543;28;20105;-78